Time;durP1;ratioP1;P1;durP2;ratioP2;P2;SDS_P1;SDS_P2;PMS_P1;PMS_P2;Temp;Humidity;BMP_temperature;BMP_pressure;BME280_temperature;BME280_humidity;BME280_pressure;Samples;Min_cycle;Max_cycle;Signal;HPM_P1;HPM_P2
2024/01/07 00:02:11;;;;;;;23.80;17.88;;;;;;;1.67;100.00;101667.97;5021354;28;20037;-59
2024/01/07 00:04:36;;;;;;;24.10;17.58;;;;;;;1.65;100.00;101667.16;5018260;28;20057;-60
2024/01/07 00:07:04;;;;;;;25.13;18.02;;;;;;;1.61;100.00;101667.28;5020257;28;20038;-60
2024/01/07 00:09:29;;;;;;;28.40;17.85;;;;;;;1.60;100.00;101665.53;5019126;28;20041;-60
2024/01/07 00:11:55;;;;;;;26.80;19.58;;;;;;;1.58;100.00;101676.09;5021840;28;20059;-59
2024/01/07 00:14:20;;;;;;;26.35;19.08;;;;;;;1.55;100.00;101673.53;5018810;28;20029;-57
2024/01/07 00:16:45;;;;;;;28.25;19.48;;;;;;;1.55;100.00;101681.41;5020902;28;20037;-56
2024/01/07 00:19:11;;;;;;;26.25;19.70;;;;;;;1.57;100.00;101678.75;5020457;28;20037;-57
2024/01/07 00:21:36;;;;;;;26.30;20.42;;;;;;;1.55;100.00;101680.50;5017361;28;20083;-60
2024/01/07 00:24:01;;;;;;;27.63;20.58;;;;;;;1.53;100.00;101691.03;5017784;28;20107;-59
2024/01/07 00:26:27;;;;;;;28.30;20.40;;;;;;;1.54;100.00;101681.44;5019081;28;20017;-60
2024/01/07 00:28:52;;;;;;;27.88;19.85;;;;;;;1.55;100.00;101683.13;5016172;28;20038;-61
2024/01/07 00:31:17;;;;;;;28.08;20.45;;;;;;;1.56;100.00;101682.25;5017847;28;20028;-59
2024/01/07 00:33:43;;;;;;;27.42;20.15;;;;;;;1.59;100.00;101688.25;5019869;28;20281;-60
2024/01/07 00:36:08;;;;;;;28.90;20.73;;;;;;;1.62;100.00;101690.81;5022370;28;20371;-60
2024/01/07 00:38:33;;;;;;;27.27;19.95;;;;;;;1.63;100.00;101689.03;5016628;28;20030;-60
2024/01/07 00:40:58;;;;;;;26.92;19.35;;;;;;;1.63;100.00;101691.66;5020604;28;20029;-59
2024/01/07 00:43:24;;;;;;;25.10;19.70;;;;;;;1.67;100.00;101699.41;5015761;28;20087;-60
2024/01/07 00:45:49;;;;;;;25.35;19.55;;;;;;;1.71;100.00;101696.72;5018664;28;20533;-60
2024/01/07 00:48:15;;;;;;;26.50;19.45;;;;;;;1.75;100.00;101700.94;5017878;28;20034;-60
2024/01/07 00:50:40;;;;;;;23.92;18.38;;;;;;;1.78;100.00;101704.38;5014445;28;20080;-60
2024/01/07 00:53:05;;;;;;;26.13;19.20;;;;;;;1.79;100.00;101697.38;5017847;28;20029;-60
2024/01/07 00:55:31;;;;;;;22.05;17.77;;;;;;;1.79;100.00;101702.59;5013221;28;20467;-60
2024/01/07 00:57:56;;;;;;;24.10;19.27;;;;;;;1.78;100.00;101709.63;5017905;28;20048;-60
2024/01/07 01:00:22;;;;;;;23.70;18.00;;;;;;;1.78;100.00;101709.63;5019308;28;20021;-60
2024/01/07 01:02:47;;;;;;;23.17;18.00;;;;;;;1.80;100.00;101705.19;5019417;28;20033;-60
2024/01/07 01:05:12;;;;;;;23.58;17.35;;;;;;;1.81;100.00;101706.88;5019691;28;20037;-59
2024/01/07 01:07:38;;;;;;;22.40;18.42;;;;;;;1.81;100.00;101706.03;5019760;28;20033;-59
2024/01/07 01:10:03;;;;;;;21.80;17.95;;;;;;;1.80;100.00;101720.06;5014427;28;20463;-61
2024/01/07 01:12:29;;;;;;;22.33;18.10;;;;;;;1.82;100.00;101723.50;5012815;28;20068;-59
2024/01/07 01:14:54;;;;;;;22.13;17.33;;;;;;;1.85;100.00;101715.56;5013963;28;20498;-58
2024/01/07 01:17:19;;;;;;;20.13;16.88;;;;;;;1.84;100.00;101732.16;5019451;28;20026;-60
2024/01/07 01:19:45;;;;;;;20.83;16.35;;;;;;;1.84;100.00;101727.78;5017150;28;20041;-59
2024/01/07 01:22:10;;;;;;;19.88;16.55;;;;;;;1.88;100.00;101728.53;5015742;28;20084;-59
2024/01/07 01:24:35;;;;;;;20.60;17.40;;;;;;;1.88;100.00;101735.56;5022290;28;20436;-58
2024/01/07 01:27:01;;;;;;;21.75;17.75;;;;;;;1.85;100.00;101731.28;5017230;28;20049;-59
2024/01/07 01:29:26;;;;;;;20.77;17.17;;;;;;;1.84;100.00;101730.38;5014415;28;20544;-59
2024/01/07 01:31:51;;;;;;;19.38;16.38;;;;;;;1.84;100.00;101727.78;5019447;28;20443;-59
2024/01/07 01:34:17;;;;;;;19.38;16.10;;;;;;;1.85;100.00;101731.28;5015776;28;20037;-58
2024/01/07 01:36:42;;;;;;;19.45;16.58;;;;;;;1.85;100.00;101739.13;5021798;28;20033;-60
2024/01/07 01:39:08;;;;;;;20.02;16.52;;;;;;;1.84;100.00;101740.03;5019805;28;20064;-59
2024/01/07 01:41:33;;;;;;;19.30;15.73;;;;;;;1.83;100.00;101741.78;5019441;28;20030;-60
2024/01/07 01:44:00;;;;;;;21.45;16.98;;;;;;;1.82;100.00;101744.44;5020846;28;20084;-59
2024/01/07 01:46:26;;;;;;;20.92;17.60;;;;;;;1.80;100.00;101747.09;5021140;28;20029;-58
2024/01/07 01:48:51;;;;;;;23.63;19.13;;;;;;;1.81;100.00;101751.41;5022859;28;20121;-60
2024/01/07 01:51:17;;;;;;;24.92;19.48;;;;;;;1.82;100.00;101757.53;5024055;28;20490;-59
2024/01/07 01:53:44;;;;;;;23.38;18.65;;;;;;;1.82;100.00;101761.00;5021772;28;20037;-60
2024/01/07 01:56:09;;;;;;;25.60;20.00;;;;;;;1.80;100.00;101754.09;5019974;28;20026;-59
2024/01/07 01:58:34;;;;;;;24.00;18.55;;;;;;;1.78;100.00;101759.38;5024925;28;20036;-59
2024/01/07 02:01:00;;;;;;;25.67;18.90;;;;;;;1.77;100.00;101762.88;5019661;28;20522;-59
2024/01/07 02:03:25;;;;;;;24.45;19.73;;;;;;;1.74;100.00;101764.72;5022098;28;20036;-60
2024/01/07 02:05:52;;;;;;;24.10;19.73;;;;;;;1.72;100.00;101766.53;5019657;28;20033;-60
2024/01/07 02:08:19;;;;;;;25.25;19.27;;;;;;;1.70;100.00;101765.69;5019872;28;20542;-60
2024/01/07 02:10:44;;;;;;;25.55;19.92;;;;;;;1.71;100.00;101768.28;5020868;28;20034;-59
2024/01/07 02:13:10;;;;;;;22.25;18.25;;;;;;;1.71;100.00;101770.03;5021469;28;20056;-60
2024/01/07 02:15:35;;;;;;;27.52;20.83;;;;;;;1.67;100.00;101769.25;5016809;28;20033;-59
2024/01/07 02:18:00;;;;;;;26.83;20.10;;;;;;;1.66;100.00;101771.00;5021422;28;20042;-60
2024/01/07 02:20:26;;;;;;;29.48;20.95;;;;;;;1.61;100.00;101767.63;5018625;28;20026;-59
2024/01/07 02:22:51;;;;;;;28.02;21.25;;;;;;;1.59;100.00;101771.19;5024270;28;20467;-59
2024/01/07 02:25:17;;;;;;;29.08;22.17;;;;;;;1.55;100.00;101770.41;5021103;28;20095;-59
2024/01/07 02:27:42;;;;;;;29.60;22.40;;;;;;;1.57;100.00;101775.63;5023530;28;20054;-60
2024/01/07 02:30:08;;;;;;;32.03;23.33;;;;;;;1.53;100.00;101780.03;5020399;28;20116;-59
2024/01/07 02:32:35;;;;;;;30.90;23.05;;;;;;;1.54;100.00;101780.94;5022771;28;20041;-59
2024/01/07 02:35:01;;;;;;;32.88;21.95;;;;;;;1.52;100.00;101778.34;5019207;28;20426;-59
2024/01/07 02:37:26;;;;;;;30.92;21.75;;;;;;;1.48;100.00;101782.78;5021214;28;20033;-58
2024/01/07 02:39:51;;;;;;;29.63;21.50;;;;;;;1.44;100.00;101786.38;5019207;28;20114;-59
2024/01/07 02:42:17;;;;;;;30.00;20.30;;;;;;;1.40;100.00;101783.84;5023309;28;20026;-59
2024/01/07 02:44:42;;;;;;;28.02;19.88;;;;;;;1.39;100.00;101788.22;5016409;28;20034;-59
2024/01/07 02:47:07;;;;;;;31.20;20.55;;;;;;;1.37;100.00;101794.41;5016802;28;20538;-59
2024/01/07 02:49:33;;;;;;;31.42;21.83;;;;;;;1.35;100.00;101785.72;5018032;28;20140;-59
2024/01/07 02:51:58;;;;;;;32.13;21.58;;;;;;;1.36;100.00;101792.69;5024172;28;20030;-58
2024/01/07 02:54:23;;;;;;;33.55;23.75;;;;;;;1.33;100.00;101793.59;5024761;28;20391;-59
2024/01/07 02:56:48;;;;;;;35.63;23.65;;;;;;;1.33;100.00;101795.38;5018288;28;20035;-59
2024/01/07 02:59:14;;;;;;;33.97;22.83;;;;;;;1.32;100.00;101796.28;5016412;28;20364;-57
2024/01/07 03:01:42;;;;;;;34.60;24.90;;;;;;;1.26;100.00;101798.13;5021098;28;20029;-58
2024/01/07 03:04:12;;;;;;;34.30;25.05;;;;;;;1.23;100.00;101806.06;5020686;28;20049;-58
2024/01/07 03:06:37;;;;;;;36.92;24.77;;;;;;;1.21;100.00;101802.59;5021719;28;20064;-60
2024/01/07 03:09:03;;;;;;;38.28;25.60;;;;;;;1.21;100.00;101799.13;5015862;28;20049;-59
2024/01/07 03:11:29;;;;;;;38.92;25.92;;;;;;;1.20;100.00;101803.50;5020220;28;20053;-59
2024/01/07 03:13:55;;;;;;;38.38;26.88;;;;;;;1.21;100.00;101806.97;5018059;28;20041;-58
2024/01/07 03:16:21;;;;;;;42.05;27.48;;;;;;;1.22;100.00;101806.94;5022607;28;20033;-59
2024/01/07 03:18:46;;;;;;;40.35;26.13;;;;;;;1.23;100.00;101803.44;5017426;28;20378;-59
2024/01/07 03:21:19;;;;;;;39.38;26.13;;;;;;;1.24;100.00;101805.16;5021815;28;20045;-59
2024/01/07 03:23:45;;;;;;;44.30;28.08;;;;;;;1.21;100.00;101813.06;5018423;28;20025;-59
2024/01/07 03:26:10;;;;;;;43.28;28.88;;;;;;;1.22;100.00;101813.94;5019609;28;20025;-58
2024/01/07 03:28:35;;;;;;;42.30;27.45;;;;;;;1.21;100.00;101809.59;5013801;28;20141;-58
2024/01/07 03:31:05;;;;;;;43.28;28.45;;;;;;;1.21;100.00;101818.28;5019444;28;20030;-59
2024/01/07 03:33:30;;;;;;;47.60;30.25;;;;;;;1.22;100.00;101816.56;5017020;28;20038;-59
2024/01/07 03:35:56;;;;;;;43.15;29.20;;;;;;;1.23;100.00;101818.25;5018380;28;20388;-59
2024/01/07 03:38:21;;;;;;;43.67;30.13;;;;;;;1.21;100.00;101818.28;5020117;28;20025;-59
2024/01/07 03:40:46;;;;;;;50.00;30.50;;;;;;;1.19;100.00;101822.69;5022051;28;20029;-59
2024/01/07 03:43:11;;;;;;;49.38;31.02;;;;;;;1.20;100.00;101829.69;5021320;28;20479;-58
2024/01/07 03:45:37;;;;;;;46.78;29.75;;;;;;;1.22;100.00;101829.63;5016774;28;20030;-58
2024/01/07 03:48:02;;;;;;;45.25;30.60;;;;;;;1.22;100.00;101830.50;5016060;28;20026;-58
2024/01/07 03:50:27;;;;;;;42.83;28.38;;;;;;;1.23;100.00;101829.59;5017395;28;20111;-59
2024/01/07 03:52:53;;;;;;;42.97;28.38;;;;;;;1.25;100.00;101834.78;5018458;28;20478;-59
2024/01/07 03:55:18;;;;;;;46.33;30.08;;;;;;;1.24;100.00;101839.16;5019505;28;20026;-59
2024/01/07 03:57:43;;;;;;;41.83;27.77;;;;;;;1.25;100.00;101838.28;5020380;28;20026;-58
2024/01/07 04:00:09;;;;;;;42.20;27.92;;;;;;;1.25;100.00;101837.41;5017431;28;20361;-58
2024/01/07 04:02:35;;;;;;;37.90;26.08;;;;;;;1.23;100.00;101839.19;5016916;28;20029;-59
2024/01/07 04:05:00;;;;;;;36.83;25.42;;;;;;;1.23;100.00;101845.31;5022765;28;20029;-59
2024/01/07 04:07:25;;;;;;;37.20;25.85;;;;;;;1.22;100.00;101854.03;5019229;28;20345;-59
2024/01/07 04:09:50;;;;;;;34.72;25.52;;;;;;;1.22;100.00;101848.81;5019307;28;20655;-59
2024/01/07 04:12:16;;;;;;;38.53;26.50;;;;;;;1.24;100.00;101859.25;5019088;28;20034;-58
2024/01/07 04:14:43;;;;;;;36.53;25.85;;;;;;;1.22;100.00;101856.66;5018952;28;20029;-58
2024/01/07 04:17:08;;;;;;;34.20;24.63;;;;;;;1.24;100.00;101856.63;5016120;28;20029;-58
2024/01/07 04:19:36;;;;;;;32.92;24.65;;;;;;;1.25;100.00;101863.56;5018949;28;20407;-58
2024/01/07 04:22:01;;;;;;;34.17;24.38;;;;;;;1.26;100.00;101860.06;5015560;28;20025;-58
2024/01/07 04:24:27;;;;;;;34.13;24.98;;;;;;;1.27;100.00;101860.03;5020996;28;20041;-58
2024/01/07 04:26:52;;;;;;;35.33;25.70;;;;;;;1.26;100.00;101860.91;5015506;28;20101;-58
2024/01/07 04:29:17;;;;;;;36.55;24.42;;;;;;;1.25;100.00;101861.84;5020846;28;20025;-59
2024/01/07 04:31:43;;;;;;;34.72;24.42;;;;;;;1.25;100.00;101874.91;5017817;28;20482;-60
2024/01/07 04:34:08;;;;;;;31.05;22.92;;;;;;;1.26;100.00;101884.47;5018824;28;20033;-60
2024/01/07 04:36:33;;;;;;;31.10;22.42;;;;;;;1.28;100.00;101873.97;5019175;28;20113;-60
2024/01/07 04:38:58;;;;;;;31.52;21.80;;;;;;;1.31;100.00;101876.53;5019098;28;20475;-59
2024/01/07 04:41:24;;;;;;;28.08;20.52;;;;;;;1.34;100.00;101888.72;5016447;28;20025;-59
2024/01/07 04:43:49;;;;;;;30.75;22.30;;;;;;;1.33;100.00;101882.59;5020083;28;20037;-58
2024/01/07 04:46:15;;;;;;;30.25;21.17;;;;;;;1.32;100.00;101886.13;5015641;28;20026;-59
2024/01/07 04:48:40;;;;;;;32.85;23.17;;;;;;;1.34;100.00;101886.09;5016254;28;20038;-59
2024/01/07 04:51:06;;;;;;;33.50;22.73;;;;;;;1.35;100.00;101886.06;5016319;28;20037;-59
2024/01/07 04:53:31;;;;;;;33.38;22.65;;;;;;;1.33;100.00;101903.53;5018832;28;20375;-59
2024/01/07 04:55:56;;;;;;;32.22;21.98;;;;;;;1.31;100.00;101894.84;5017034;28;20072;-58
2024/01/07 04:58:22;;;;;;;30.02;21.45;;;;;;;1.32;100.00;101896.59;5016272;28;20401;-58
2024/01/07 05:00:47;;;;;;;30.00;21.13;;;;;;;1.32;100.00;101899.22;5020138;28;20045;-59
2024/01/07 05:03:12;;;;;;;30.67;21.50;;;;;;;1.32;100.00;101893.97;5014600;28;20469;-59
2024/01/07 05:05:38;;;;;;;31.05;21.00;;;;;;;1.34;100.00;101912.25;5014472;28;20026;-58
2024/01/07 05:08:04;;;;;;;29.15;21.08;;;;;;;1.35;100.00;101904.38;5018157;28;20474;-59
2024/01/07 05:10:29;;;;;;;27.80;19.90;;;;;;;1.37;100.00;101899.97;5017725;28;20122;-58
2024/01/07 05:12:54;;;;;;;31.30;21.30;;;;;;;1.38;100.00;101912.19;5020427;28;20025;-58
2024/01/07 05:15:19;;;;;;;28.30;19.42;;;;;;;1.37;100.00;101907.81;5022085;28;20022;-58
2024/01/07 05:17:45;;;;;;;24.90;18.42;;;;;;;1.38;100.00;101908.69;5019584;28;20379;-60
2024/01/07 05:20:10;;;;;;;24.27;17.50;;;;;;;1.37;100.00;101909.59;5017397;28;20052;-59
2024/01/07 05:22:35;;;;;;;24.10;16.67;;;;;;;1.34;100.00;101914.88;5023192;28;20361;-59
2024/01/07 05:25:01;;;;;;;22.25;16.83;;;;;;;1.33;100.00;101919.22;5023712;28;20416;-59
2024/01/07 05:27:26;;;;;;;21.10;16.85;;;;;;;1.32;100.00;101925.38;5020338;28;20037;-59
2024/01/07 05:29:53;;;;;;;22.92;15.65;;;;;;;1.32;100.00;101928.00;5022313;28;20029;-60
2024/01/07 05:32:18;;;;;;;20.00;14.65;;;;;;;1.31;100.00;101936.72;5020962;28;20034;-60
2024/01/07 05:34:44;;;;;;;21.88;16.20;;;;;;;1.29;100.00;101942.00;5019663;28;20501;-60
2024/01/07 05:37:09;;;;;;;20.02;15.88;;;;;;;1.28;100.00;101940.28;5021846;28;20037;-60
2024/01/07 05:39:34;;;;;;;22.17;16.10;;;;;;;1.23;100.00;101944.75;5020349;28;20056;-60
2024/01/07 05:41:59;;;;;;;19.45;15.73;;;;;;;1.21;100.00;101954.38;5022589;28;20064;-61
2024/01/07 05:44:25;;;;;;;20.80;16.02;;;;;;;1.20;100.00;101952.66;5020256;28;20029;-60
2024/01/07 05:46:50;;;;;;;20.25;14.57;;;;;;;1.19;100.00;101961.41;5022786;28;20113;-60
2024/01/07 05:49:15;;;;;;;17.17;13.93;;;;;;;1.19;100.00;101960.53;5022820;28;20050;-60
2024/01/07 05:51:41;;;;;;;18.13;14.50;;;;;;;1.17;100.00;101960.56;5022332;28;20021;-60
2024/01/07 05:54:06;;;;;;;16.05;13.77;;;;;;;1.14;100.00;101965.84;5022188;28;20026;-59
2024/01/07 05:56:31;;;;;;;19.05;14.23;;;;;;;1.14;100.00;101965.00;5023263;28;20081;-60
2024/01/07 05:58:56;;;;;;;19.38;14.13;;;;;;;1.09;100.00;101968.56;5020698;28;20030;-59
2024/01/07 06:01:22;;;;;;;16.65;13.65;;;;;;;1.09;100.00;101967.69;5021898;28;20076;-60
2024/01/07 06:03:48;;;;;;;19.00;14.23;;;;;;;1.06;100.00;101971.22;5020026;28;20382;-60
2024/01/07 06:06:14;;;;;;;18.48;14.65;;;;;;;1.05;100.00;101969.53;5021109;28;20052;-58
2024/01/07 06:08:43;;;;;;;19.45;14.95;;;;;;;1.05;100.00;101973.88;5018065;28;20083;-60
2024/01/07 06:11:10;;;;;;;17.40;14.05;;;;;;;1.04;100.00;101980.00;5023662;28;20120;-60
2024/01/07 06:13:36;;;;;;;17.00;13.60;;;;;;;1.02;100.00;101987.88;5021079;28;20062;-60
2024/01/07 06:16:01;;;;;;;16.63;13.23;;;;;;;0.99;100.00;101985.31;5022149;28;20054;-59
2024/01/07 06:18:26;;;;;;;16.67;13.30;;;;;;;1.02;100.00;101989.66;5020846;28;20033;-60
2024/01/07 06:20:51;;;;;;;17.20;13.60;;;;;;;1.01;100.00;102001.84;5020635;28;20537;-59
2024/01/07 06:23:17;;;;;;;16.20;13.05;;;;;;;1.00;100.00;101996.63;5020292;28;20026;-58
2024/01/07 06:25:43;;;;;;;14.75;12.27;;;;;;;0.97;100.00;102000.19;5020180;28;20025;-59
2024/01/07 06:28:10;;;;;;;14.30;12.48;;;;;;;0.98;100.00;102007.13;5018726;28;20096;-59
2024/01/07 06:30:35;;;;;;;15.18;12.13;;;;;;;0.97;100.00;102013.28;5023083;28;20026;-59
2024/01/07 06:33:00;;;;;;;16.48;12.55;;;;;;;0.99;100.00;102013.25;5020664;28;20065;-58
2024/01/07 06:35:26;;;;;;;16.48;12.80;;;;;;;0.98;100.00;102025.44;5023698;28;20057;-60
2024/01/07 06:37:51;;;;;;;17.38;13.50;;;;;;;0.98;100.00;102024.59;5018956;28;20030;-59
2024/01/07 06:40:16;;;;;;;17.38;13.60;;;;;;;1.00;100.00;102025.41;5019756;28;20437;-59
2024/01/07 06:42:43;;;;;;;19.92;13.80;;;;;;;1.00;100.00;102022.81;5019145;28;20037;-58
2024/01/07 06:45:09;;;;;;;18.00;14.82;;;;;;;1.00;100.00;102039.38;5020451;28;20036;-58
2024/01/07 06:47:34;;;;;;;18.42;14.10;;;;;;;0.97;100.00;102036.81;5018970;28;20467;-60
2024/01/07 06:49:59;;;;;;;18.60;14.70;;;;;;;0.98;100.00;102041.13;5016821;28;20041;-58
2024/01/07 06:52:25;;;;;;;18.52;15.10;;;;;;;0.98;100.00;102048.97;5017095;28;20030;-60
2024/01/07 06:54:50;;;;;;;18.65;15.90;;;;;;;0.98;100.00;102054.22;5019148;28;20489;-58
2024/01/07 06:57:15;;;;;;;20.52;16.83;;;;;;;0.97;100.00;102056.88;5017108;28;20360;-60
2024/01/07 06:59:41;;;;;;;19.50;16.42;;;;;;;0.98;100.00;102058.59;5020122;28;20025;-59
2024/01/07 07:02:06;;;;;;;20.73;16.90;;;;;;;0.98;100.00;102055.97;5021367;28;20036;-60
2024/01/07 07:04:31;;;;;;;23.13;16.73;;;;;;;0.98;100.00;102055.97;5019309;28;20029;-60
2024/01/07 07:06:57;;;;;;;21.42;17.70;;;;;;;0.94;100.00;102062.16;5014219;28;20434;-59
2024/01/07 07:09:23;;;;;;;22.60;17.55;;;;;;;0.93;100.00;102066.50;5012717;28;20034;-59
2024/01/07 07:11:48;;;;;;;20.65;16.95;;;;;;;0.95;100.00;102069.09;5015386;28;20387;-59
2024/01/07 07:14:13;;;;;;;22.95;17.60;;;;;;;0.96;100.00;102071.69;5018482;28;20026;-60
2024/01/07 07:16:38;;;;;;;22.08;18.30;;;;;;;0.95;100.00;102072.59;5018176;28;20088;-60
2024/01/07 07:19:04;;;;;;;20.40;17.45;;;;;;;0.96;100.00;102076.06;5018959;28;20033;-60
2024/01/07 07:21:29;;;;;;;21.92;18.23;;;;;;;0.95;100.00;102074.34;5013606;28;20029;-61
2024/01/07 07:23:54;;;;;;;22.60;17.92;;;;;;;0.93;100.00;102076.97;5011103;28;20065;-61
2024/01/07 07:26:19;;;;;;;19.88;16.73;;;;;;;0.89;100.00;102086.63;5016703;28;20049;-60
2024/01/07 07:28:45;;;;;;;20.10;17.20;;;;;;;0.88;100.00;102095.38;5014496;28;20038;-61
2024/01/07 07:31:11;;;;;;;20.45;16.30;;;;;;;0.89;100.00;102089.25;5003831;28;20053;-60
2024/01/07 07:33:38;;;;;;;20.48;17.25;;;;;;;0.85;100.00;102095.44;5015119;28;20034;-60
2024/01/07 07:36:04;;;;;;;21.83;17.80;;;;;;;0.82;100.00;102103.31;5015935;28;20501;-60
2024/01/07 07:38:29;;;;;;;21.15;17.00;;;;;;;0.79;100.00;102108.59;5018234;28;20025;-60
2024/01/07 07:40:55;;;;;;;22.15;17.58;;;;;;;0.76;100.00;102110.41;5017645;28;20083;-60
2024/01/07 07:43:23;;;;;;;21.25;16.33;;;;;;;0.72;100.00;102115.66;5013611;28;20034;-60
2024/01/07 07:45:48;;;;;;;21.08;17.63;;;;;;;0.68;100.00;102115.72;5016385;28;20183;-60
2024/01/07 07:48:13;;;;;;;21.83;16.77;;;;;;;0.65;100.00;102123.63;5015558;28;20137;-60
2024/01/07 07:50:40;;;;;;;20.55;16.42;;;;;;;0.61;100.00;102127.19;5016606;28;20056;-60
2024/01/07 07:53:05;;;;;;;19.33;15.77;;;;;;;0.58;100.00;102132.44;5008584;28;20071;-60
2024/01/07 07:55:31;;;;;;;18.20;14.45;;;;;;;0.55;100.00;102142.06;5009607;28;20113;-59
2024/01/07 07:57:56;;;;;;;16.40;13.35;;;;;;;0.50;100.00;102149.13;5017942;28;20337;-60
2024/01/07 08:00:21;;;;;;;17.10;12.35;;;;;;;0.44;100.00;102145.72;5017101;28;20126;-60
2024/01/07 08:02:47;;;;;;;15.77;12.35;;;;;;;0.41;100.00;102157.06;5008562;28;20045;-59
2024/01/07 08:05:13;;;;;;;16.35;12.32;;;;;;;0.36;100.00;102159.72;5016905;28;20025;-60
2024/01/07 08:07:38;;;;;;;16.63;12.48;;;;;;;0.33;100.00;102156.28;5018743;28;20120;-59
2024/01/07 08:10:05;;;;;;;16.73;13.43;;;;;;;0.30;100.00;102156.31;5016408;28;20491;-60
2024/01/07 08:12:31;;;;;;;17.77;12.80;;;;;;;0.30;100.00;102158.94;5016474;28;20030;-60
2024/01/07 08:14:56;;;;;;;16.45;12.77;;;;;;;0.29;100.00;102165.06;5019202;28;20436;-59
2024/01/07 08:17:21;;;;;;;16.17;12.90;;;;;;;0.26;100.00;102165.97;5015886;28;20038;-60
2024/01/07 08:19:46;;;;;;;18.08;13.50;;;;;;;0.23;100.00;102163.38;5013697;28;20406;-60
2024/01/07 08:22:12;;;;;;;19.58;13.32;;;;;;;0.24;100.00;102172.97;5018086;28;20032;-59
2024/01/07 08:24:37;;;;;;;19.92;13.82;;;;;;;0.23;100.00;102170.38;5018150;28;20041;-59
2024/01/07 08:27:04;;;;;;;16.92;13.45;;;;;;;0.21;100.00;102183.44;5016601;28;20395;-60
2024/01/07 08:29:29;;;;;;;18.15;13.02;;;;;;;0.22;100.00;102172.13;5014362;28;20499;-60
2024/01/07 08:31:54;;;;;;;18.17;13.15;;;;;;;0.22;100.00;102179.97;5015305;28;20114;-59
2024/01/07 08:34:20;;;;;;;17.48;12.88;;;;;;;0.22;100.00;102177.34;5017244;28;20022;-59
2024/01/07 08:36:45;;;;;;;17.52;14.05;;;;;;;0.21;100.00;102188.66;5014130;28;20030;-58
2024/01/07 08:39:11;;;;;;;16.95;13.15;;;;;;;0.22;100.00;102197.38;5010277;28;20056;-60
2024/01/07 08:41:36;;;;;;;17.33;13.07;;;;;;;0.18;100.00;102201.75;5019419;28;20052;-59
2024/01/07 08:44:02;;;;;;;18.33;12.77;;;;;;;0.17;100.00;102206.13;5017999;28;20084;-58
2024/01/07 08:46:27;;;;;;;17.67;12.77;;;;;;;0.16;100.00;102206.16;5023348;28;20064;-58
2024/01/07 08:48:52;;;;;;;18.77;12.88;;;;;;;0.13;100.00;102204.44;5020761;28;20041;-61
2024/01/07 08:51:17;;;;;;;15.43;12.15;;;;;;;0.10;100.00;102203.59;5022319;28;20069;-59
2024/01/07 08:53:43;;;;;;;16.80;11.95;;;;;;;0.09;100.00;102212.34;5019384;28;20026;-58
2024/01/07 08:56:08;;;;;;;17.48;12.88;;;;;;;0.06;100.00;102218.44;5020966;28;20021;-60
2024/01/07 08:58:34;;;;;;;16.92;13.05;;;;;;;0.07;100.00;102220.19;5014562;28;20490;-60
2024/01/07 09:00:59;;;;;;;18.13;12.90;;;;;;;0.08;100.00;102215.81;5018699;28;20037;-59
2024/01/07 09:03:24;;;;;;;15.27;12.55;;;;;;;0.09;100.00;102222.78;5019506;28;20463;-59
2024/01/07 09:05:50;;;;;;;16.25;12.13;;;;;;;0.09;100.00;102228.88;5023513;28;20041;-60
2024/01/07 09:08:15;;;;;;;14.75;12.38;;;;;;;0.09;100.00;102233.22;5019284;28;20100;-60
2024/01/07 09:10:40;;;;;;;17.48;11.95;;;;;;;0.08;100.00;102234.97;5022248;28;20370;-59
2024/01/07 09:13:06;;;;;;;16.20;12.25;;;;;;;0.07;100.00;102241.09;5016086;28;20440;-60
2024/01/07 09:15:31;;;;;;;15.02;11.95;;;;;;;0.07;100.00;102241.09;5022122;28;20025;-59
2024/01/07 09:17:57;;;;;;;18.30;12.80;;;;;;;0.09;100.00;102241.94;5019131;28;20436;-60
2024/01/07 09:20:22;;;;;;;14.48;11.23;;;;;;;0.11;100.00;102249.75;5022042;28;20026;-60
2024/01/07 09:22:48;;;;;;;13.88;11.43;;;;;;;0.10;100.00;102254.13;5023497;28;20050;-60
2024/01/07 09:25:13;;;;;;;13.95;10.88;;;;;;;0.08;100.00;102255.84;5021264;28;20037;-60
2024/01/07 09:27:39;;;;;;;12.85;11.32;;;;;;;0.06;100.00;102257.63;5021543;28;20387;-60
2024/01/07 09:30:05;;;;;;;13.35;11.48;;;;;;;0.07;100.00;102266.34;5016460;28;20643;-59
2024/01/07 09:32:31;;;;;;;12.43;10.80;;;;;;;0.07;100.00;102268.97;5019138;28;20078;-59
2024/01/07 09:34:57;;;;;;;13.00;10.98;;;;;;;0.05;100.00;102273.31;5019251;28;20025;-60
2024/01/07 09:37:23;;;;;;;13.95;10.48;;;;;;;0.04;100.00;102280.28;5020948;28;20026;-59
2024/01/07 09:39:49;;;;;;;12.63;10.60;;;;;;;0.05;100.00;102283.75;5020613;28;20046;-60
2024/01/07 09:42:16;;;;;;;14.02;10.80;;;;;;;0.03;100.00;102278.56;5023178;28;20033;-60
2024/01/07 09:44:42;;;;;;;11.65;10.45;;;;;;;0.04;100.00;102285.53;5021257;28;20124;-59
2024/01/07 09:47:12;;;;;;;14.15;10.77;;;;;;;0.06;100.00;102294.19;5016175;28;20040;-59
2024/01/07 09:49:39;;;;;;;12.45;10.75;;;;;;;0.06;100.00;102291.59;5017522;28;20448;-58
2024/01/07 09:52:05;;;;;;;12.18;10.88;;;;;;;0.06;100.00;102302.03;5014747;28;20037;-59
2024/01/07 09:54:31;;;;;;;12.00;10.65;;;;;;;0.06;100.00;102296.81;5020832;28;20025;-60
2024/01/07 09:57:01;;;;;;;14.68;11.00;;;;;;;0.06;100.00;102304.66;5017837;28;20029;-60
2024/01/07 09:59:30;;;;;;;13.10;10.98;;;;;;;0.05;100.00;102308.16;5021515;28;20030;-60
2024/01/07 10:01:56;;;;;;;10.47;9.30;;;;;;;0.04;100.00;102314.25;5014975;28;20490;-60
2024/01/07 10:04:25;;;;;;;11.25;10.10;;;;;;;0.03;100.00;102311.66;5020731;28;20279;-60
2024/01/07 10:06:50;;;;;;;13.17;9.17;;;;;;;0.01;100.00;102321.25;5016893;28;20038;-60
2024/01/07 10:09:17;;;;;;;10.65;9.38;;;;;;;-0.05;100.00;102320.44;5020712;28;20037;-60
2024/01/07 10:11:44;;;;;;;13.32;9.63;;;;;;;-0.05;100.00;102322.16;5020671;28;20022;-60
2024/01/07 10:14:09;;;;;;;10.57;9.10;;;;;;;-0.05;100.00;102324.78;5017988;28;20047;-60
2024/01/07 10:16:34;;;;;;;10.95;9.23;;;;;;;-0.04;100.00;102329.13;5014801;28;20029;-60
2024/01/07 10:19:00;;;;;;;12.38;9.80;;;;;;;-0.06;100.00;102333.50;5023269;28;20033;-61
2024/01/07 10:21:25;;;;;;;12.70;9.77;;;;;;;-0.07;100.00;102331.75;5013138;28;20547;-60
2024/01/07 10:23:51;;;;;;;11.27;10.18;;;;;;;-0.07;100.00;102335.22;5019738;28;20056;-60
2024/01/07 10:26:16;;;;;;;10.90;9.27;;;;;;;-0.09;100.00;102337.00;5015838;28;20835;-60
2024/01/07 10:28:43;;;;;;;10.57;9.23;;;;;;;-0.09;100.00;102336.13;5021439;28;20479;-59
2024/01/07 10:31:09;;;;;;;11.50;10.13;;;;;;;-0.10;100.00;102343.13;5019175;28;20032;-60
2024/01/07 10:33:34;;;;;;;11.77;10.10;;;;;;;-0.08;100.00;102343.09;5015404;28;20030;-60
2024/01/07 10:36:05;;;;;;;12.20;10.30;;;;;;;-0.08;100.00;102341.34;5016610;28;20083;-60
2024/01/07 10:38:33;;;;;;;12.10;10.20;;;;;;;-0.07;100.00;102340.44;5019896;28;20033;-60
2024/01/07 10:41:00;;;;;;;11.68;10.48;;;;;;;-0.08;100.00;102332.66;5019858;28;20037;-60
2024/01/07 10:43:29;;;;;;;11.45;10.02;;;;;;;-0.08;100.00;102341.34;5011433;28;20495;-60
2024/01/07 10:45:55;;;;;;;12.88;10.25;;;;;;;-0.05;100.00;102343.06;5018038;28;20387;-60
2024/01/07 10:48:21;;;;;;;13.20;10.50;;;;;;;-0.09;100.00;102337.00;5019028;28;20029;-60
2024/01/07 10:50:50;;;;;;;10.73;9.63;;;;;;;-0.09;100.00;102341.34;5018441;28;20045;-60
2024/01/07 10:53:20;;;;;;;11.50;10.17;;;;;;;-0.09;100.00;102342.22;5011107;28;20073;-60
2024/01/07 10:56:05;;;;;;;13.68;10.07;;;;;;;-0.06;100.00;102343.94;5010325;28;20299;-60
2024/01/07 10:58:36;;;;;;;13.20;10.02;;;;;;;-0.05;100.00;102343.94;4996710;28;20411;-59
2024/01/07 11:01:03;;;;;;;11.68;10.48;;;;;;;-0.06;100.00;102342.19;5015429;28;20164;-60
2024/01/07 11:04:14;;;;;;;11.35;10.15;;;;;;;-0.03;100.00;102344.78;5015087;28;20037;-60